Time;durP1;ratioP1;P1;durP2;ratioP2;P2;SDS_P1;SDS_P2;PMS_P1;PMS_P2;Temp;Humidity;BMP_temperature;BMP_pressure;BME280_temperature;BME280_humidity;BME280_pressure;Samples;Min_cycle;Max_cycle;Signal;HPM_P1;HPM_P2
2022/07/09 00:02:00;;;;;;;0.00;0.00;;;;;;;;;;5048766;28;20287;-69
2022/07/09 00:04:26;;;;;;;0.00;0.00;;;;;;;;;;5045711;28;20210;-68
2022/07/09 00:06:52;;;;;;;0.00;0.00;;;;;;;;;;5048218;28;20240;-69
2022/07/09 00:09:20;;;;;;;0.00;0.00;;;;;;;;;;5046444;28;20227;-68
2022/07/09 00:11:46;;;;;;;0.00;0.00;;;;;;;;;;5047485;28;20250;-69
2022/07/09 00:14:13;;;;;;;0.00;0.00;;;;;;;;;;5046926;28;20531;-68
2022/07/09 00:16:39;;;;;;;0.00;0.00;;;;;;;;;;5046482;28;20439;-68
2022/07/09 00:19:05;;;;;;;0.03;0.03;;;;;;;;;;5047888;28;20204;-68
2022/07/09 00:21:32;;;;;;;0.10;0.10;;;;;;;;;;5045429;28;20240;-67
2022/07/09 00:23:58;;;;;;;0.10;0.10;;;;;;;;;;5048767;28;20457;-69
2022/07/09 00:26:26;;;;;;;0.00;0.00;;;;;;;;;;5044122;28;20239;-68
2022/07/09 00:28:52;;;;;;;0.00;0.00;;;;;;;;;;5049264;28;20204;-68
2022/07/09 00:31:18;;;;;;;0.00;0.00;;;;;;;;;;5043737;28;20259;-68
2022/07/09 00:33:45;;;;;;;0.10;0.10;;;;;;;;;;5050286;28;20205;-69
2022/07/09 00:36:11;;;;;;;0.00;0.00;;;;;;;;;;5042088;28;20265;-67
2022/07/09 00:38:37;;;;;;;0.00;0.00;;;;;;;;;;5049876;28;20272;-68
2022/07/09 00:41:04;;;;;;;0.10;0.10;;;;;;;;;;5041339;28;20448;-67
2022/07/09 00:43:31;;;;;;;0.05;0.05;;;;;;;;;;5051725;28;20210;-68
2022/07/09 00:45:58;;;;;;;0.10;0.10;;;;;;;;;;5040307;28;20246;-68
2022/07/09 00:48:24;;;;;;;0.03;0.03;;;;;;;;;;5052388;28;20211;-68
2022/07/09 00:50:51;;;;;;;0.10;0.10;;;;;;;;;;5039781;28;20648;-70
2022/07/09 00:53:19;;;;;;;0.08;0.08;;;;;;;;;;5053461;28;20494;-68
2022/07/09 00:55:47;;;;;;;0.00;0.00;;;;;;;;;;5038932;28;20244;-68
2022/07/09 00:58:14;;;;;;;0.10;0.10;;;;;;;;;;5053074;28;20284;-69
2022/07/09 01:00:43;;;;;;;0.03;0.03;;;;;;;;;;5038154;28;20407;-69
2022/07/09 01:03:10;;;;;;;0.10;0.10;;;;;;;;;;5053854;28;20585;-68
2022/07/09 01:05:36;;;;;;;0.03;0.03;;;;;;;;;;5037427;28;20352;-68
2022/07/09 01:08:03;;;;;;;0.10;0.10;;;;;;;;;;5054770;28;20205;-69
2022/07/09 01:10:30;;;;;;;0.10;0.10;;;;;;;;;;5036385;28;20243;-67
2022/07/09 01:12:56;;;;;;;0.10;0.10;;;;;;;;;;5055332;28;20192;-69
2022/07/09 01:15:23;;;;;;;0.10;0.10;;;;;;;;;;5035402;28;20210;-68
2022/07/09 01:17:52;;;;;;;0.10;0.10;;;;;;;;;;5056183;28;20219;-68
2022/07/09 01:20:22;;;;;;;0.10;0.10;;;;;;;;;;5035005;28;20375;-68
2022/07/09 01:22:48;;;;;;;0.10;0.10;;;;;;;;;;5056636;28;20213;-68
2022/07/09 01:25:16;;;;;;;0.03;0.03;;;;;;;;;;5034262;28;20229;-69
2022/07/09 01:27:43;;;;;;;0.10;0.10;;;;;;;;;;5057139;28;20192;-67
2022/07/09 01:30:09;;;;;;;0.10;0.10;;;;;;;;;;5033532;28;20215;-68
2022/07/09 01:32:36;;;;;;;0.00;0.00;;;;;;;;;;5057880;28;20330;-67
2022/07/09 01:35:02;;;;;;;0.00;0.00;;;;;;;;;;5042852;28;20270;-68
2022/07/09 01:37:30;;;;;;;0.03;0.03;;;;;;;;;;5031345;28;20225;-67
2022/07/09 01:39:57;;;;;;;0.07;0.07;;;;;;;;;;5042884;28;20209;-68
2022/07/09 01:42:23;;;;;;;0.10;0.10;;;;;;;;;;5048157;28;20248;-68
2022/07/09 01:44:49;;;;;;;0.10;0.10;;;;;;;;;;5042802;28;20208;-68
2022/07/09 01:47:16;;;;;;;0.07;0.07;;;;;;;;;;5048184;28;20244;-68
2022/07/09 01:49:42;;;;;;;0.10;0.10;;;;;;;;;;5042831;28;20198;-68
2022/07/09 01:52:09;;;;;;;0.10;0.10;;;;;;;;;;5048089;28;20240;-68
2022/07/09 01:54:37;;;;;;;0.10;0.10;;;;;;;;;;5042759;28;20211;-68
2022/07/09 01:57:03;;;;;;;0.03;0.03;;;;;;;;;;5047789;28;20347;-67
2022/07/09 01:59:30;;;;;;;0.10;0.10;;;;;;;;;;5042764;28;20267;-68
2022/07/09 02:01:57;;;;;;;0.00;0.00;;;;;;;;;;5047124;28;20307;-67
2022/07/09 02:04:24;;;;;;;0.10;0.10;;;;;;;;;;5043753;28;20207;-67
2022/07/09 02:06:50;;;;;;;0.10;0.10;;;;;;;;;;5045945;28;20242;-68
2022/07/09 02:09:17;;;;;;;0.10;0.10;;;;;;;;;;5044642;28;20437;-68
2022/07/09 02:11:45;;;;;;;0.10;0.10;;;;;;;;;;5045165;28;20249;-68
2022/07/09 02:14:11;;;;;;;0.10;0.10;;;;;;;;;;5045002;28;20215;-67
2022/07/09 02:16:37;;;;;;;0.00;0.00;;;;;;;;;;5044138;28;20426;-68
2022/07/09 02:19:04;;;;;;;0.10;0.10;;;;;;;;;;5046264;28;20459;-68
2022/07/09 02:21:30;;;;;;;0.10;0.10;;;;;;;;;;5043344;28;20321;-68
2022/07/09 02:23:58;;;;;;;0.00;0.00;;;;;;;;;;5046968;28;20369;-68
2022/07/09 02:26:25;;;;;;;0.10;0.10;;;;;;;;;;5042547;28;20241;-68
2022/07/09 02:28:52;;;;;;;0.10;0.10;;;;;;;;;;5047581;28;20298;-68
2022/07/09 02:31:19;;;;;;;0.10;0.10;;;;;;;;;;5041929;28;20239;-68
2022/07/09 02:33:45;;;;;;;0.10;0.10;;;;;;;;;;5048393;28;20461;-68
2022/07/09 02:36:11;;;;;;;0.10;0.10;;;;;;;;;;5040580;28;20471;-68
2022/07/09 02:38:38;;;;;;;0.00;0.00;;;;;;;;;;5048937;28;20275;-67
2022/07/09 02:41:04;;;;;;;0.00;0.00;;;;;;;;;;5039633;28;20631;-68
2022/07/09 02:43:32;;;;;;;0.10;0.10;;;;;;;;;;5049864;28;20454;-67
2022/07/09 02:46:00;;;;;;;0.10;0.10;;;;;;;;;;5038944;28;20303;-67
2022/07/09 02:48:27;;;;;;;0.10;0.10;;;;;;;;;;5050680;28;20206;-68
2022/07/09 02:50:53;;;;;;;0.10;0.10;;;;;;;;;;5038219;28;20441;-68
2022/07/09 02:53:20;;;;;;;0.10;0.10;;;;;;;;;;5050977;28;20201;-68
2022/07/09 02:55:46;;;;;;;0.10;0.10;;;;;;;;;;5037424;28;20252;-68
2022/07/09 02:58:13;;;;;;;0.10;0.10;;;;;;;;;;5051895;28;20286;-68
2022/07/09 03:00:40;;;;;;;0.10;0.10;;;;;;;;;;5036286;28;20242;-68
2022/07/09 03:03:08;;;;;;;0.07;0.07;;;;;;;;;;5055710;28;20266;-67
2022/07/09 03:05:34;;;;;;;0.10;0.10;;;;;;;;;;5039308;28;20297;-68
2022/07/09 03:08:01;;;;;;;0.00;0.00;;;;;;;;;;5057118;28;20191;-67
2022/07/09 03:10:28;;;;;;;0.10;0.10;;;;;;;;;;5038383;28;20241;-68
2022/07/09 03:12:54;;;;;;;0.10;0.10;;;;;;;;;;5058273;28;20569;-68
2022/07/09 03:15:20;;;;;;;0.10;0.10;;;;;;;;;;5037742;28;20209;-68
2022/07/09 03:17:47;;;;;;;0.10;0.10;;;;;;;;;;5058734;28;20563;-67
2022/07/09 03:20:15;;;;;;;0.00;0.00;;;;;;;;;;5036249;28;20465;-68
2022/07/09 03:22:42;;;;;;;0.10;0.10;;;;;;;;;;5059858;28;20263;-67
2022/07/09 03:25:09;;;;;;;0.10;0.10;;;;;;;;;;5035699;28;20250;-68
2022/07/09 03:27:35;;;;;;;0.10;0.10;;;;;;;;;;5060246;28;20281;-68
2022/07/09 03:30:02;;;;;;;0.10;0.10;;;;;;;;;;5045638;28;20214;-68
2022/07/09 03:32:29;;;;;;;0.03;0.03;;;;;;;;;;5050555;28;20460;-69
2022/07/09 03:34:55;;;;;;;0.03;0.03;;;;;;;;;;5045387;28;20475;-68
2022/07/09 03:37:23;;;;;;;0.10;0.10;;;;;;;;;;5050625;28;20314;-68
2022/07/09 03:39:49;;;;;;;0.00;0.00;;;;;;;;;;5045535;28;20282;-67
2022/07/09 03:42:16;;;;;;;0.10;0.10;;;;;;;;;;5050410;28;20241;-68
2022/07/09 03:44:42;;;;;;;0.10;0.10;;;;;;;;;;5045247;28;20276;-68
2022/07/09 03:47:08;;;;;;;0.10;0.10;;;;;;;;;;5050029;28;20263;-68
2022/07/09 03:49:35;;;;;;;0.00;0.00;;;;;;;;;;5044933;28;20216;-69
2022/07/09 03:52:01;;;;;;;0.10;0.10;;;;;;;;;;5049668;28;20240;-68
2022/07/09 03:54:29;;;;;;;0.10;0.10;;;;;;;;;;5045425;28;20492;-68
2022/07/09 03:56:55;;;;;;;0.10;0.10;;;;;;;;;;5048197;28;20237;-68
2022/07/09 03:59:22;;;;;;;0.00;0.00;;;;;;;;;;5045742;28;20285;-68
2022/07/09 04:01:48;;;;;;;0.10;0.10;;;;;;;;;;5047361;28;20246;-67
2022/07/09 04:04:14;;;;;;;0.10;0.10;;;;;;;;;;5046073;28;20213;-68
2022/07/09 04:06:41;;;;;;;0.10;0.10;;;;;;;;;;5046623;28;20250;-69
2022/07/09 04:09:07;;;;;;;0.10;0.10;;;;;;;;;;5047547;28;20278;-69
2022/07/09 04:11:35;;;;;;;0.10;0.10;;;;;;;;;;5045592;28;20246;-68
2022/07/09 04:14:02;;;;;;;0.10;0.10;;;;;;;;;;5048330;28;20383;-68
2022/07/09 04:16:29;;;;;;;0.10;0.10;;;;;;;;;;5044756;28;20256;-68
2022/07/09 04:18:55;;;;;;;0.00;0.00;;;;;;;;;;5049268;28;20530;-69
2022/07/09 04:21:22;;;;;;;0.10;0.10;;;;;;;;;;5043969;28;20242;-68
2022/07/09 04:23:48;;;;;;;0.10;0.10;;;;;;;;;;5049419;28;20252;-68
2022/07/09 04:26:15;;;;;;;0.10;0.10;;;;;;;;;;5042830;28;20246;-68
2022/07/09 04:28:42;;;;;;;0.10;0.10;;;;;;;;;;5050568;28;20204;-68
2022/07/09 04:31:09;;;;;;;0.10;0.10;;;;;;;;;;5042091;28;20313;-68
2022/07/09 04:33:35;;;;;;;0.10;0.10;;;;;;;;;;5051242;28;20562;-68
2022/07/09 04:36:01;;;;;;;0.10;0.10;;;;;;;;;;5041263;28;20309;-68
2022/07/09 04:38:28;;;;;;;0.00;0.00;;;;;;;;;;5052121;28;20208;-68
2022/07/09 04:40:55;;;;;;;0.00;0.00;;;;;;;;;;5040290;28;20308;-68
2022/07/09 04:43:21;;;;;;;0.10;0.10;;;;;;;;;;5052775;28;20611;-67
2022/07/09 04:45:49;;;;;;;0.10;0.10;;;;;;;;;;5039176;28;20250;-68
2022/07/09 04:48:15;;;;;;;0.10;0.10;;;;;;;;;;5053842;28;20452;-68
2022/07/09 04:50:42;;;;;;;0.10;0.10;;;;;;;;;;5038198;28;20243;-68
2022/07/09 04:53:08;;;;;;;0.10;0.10;;;;;;;;;;5054659;28;20267;-68
2022/07/09 04:55:34;;;;;;;0.10;0.10;;;;;;;;;;5037591;28;20257;-68
2022/07/09 04:58:01;;;;;;;0.10;0.10;;;;;;;;;;5055381;28;20211;-67
2022/07/09 05:00:27;;;;;;;0.10;0.10;;;;;;;;;;5036373;28;20257;-68
2022/07/09 05:02:55;;;;;;;0.10;0.10;;;;;;;;;;5056073;28;20195;-67
2022/07/09 05:05:23;;;;;;;0.00;0.00;;;;;;;;;;5035272;28;20349;-68
2022/07/09 05:07:49;;;;;;;0.10;0.10;;;;;;;;;;5056456;28;20288;-68
2022/07/09 05:10:16;;;;;;;0.00;0.00;;;;;;;;;;5034659;28;20224;-68
2022/07/09 05:12:42;;;;;;;0.10;0.10;;;;;;;;;;5057573;28;20194;-68
2022/07/09 05:15:09;;;;;;;0.10;0.10;;;;;;;;;;5033749;28;20404;-69
2022/07/09 05:17:36;;;;;;;0.00;0.00;;;;;;;;;;5058010;28;20294;-68
2022/07/09 05:20:04;;;;;;;0.10;0.10;;;;;;;;;;5043536;28;20218;-69
2022/07/09 05:22:31;;;;;;;0.10;0.10;;;;;;;;;;5032045;28;20395;-73
2022/07/09 05:24:57;;;;;;;0.00;0.00;;;;;;;;;;5042736;28;20214;-73
2022/07/09 05:27:23;;;;;;;0.00;0.00;;;;;;;;;;5048175;28;20242;-73
2022/07/09 05:29:50;;;;;;;0.10;0.10;;;;;;;;;;5042995;28;20209;-75
2022/07/09 05:32:16;;;;;;;0.10;0.10;;;;;;;;;;5048494;28;20331;-74
2022/07/09 05:34:43;;;;;;;0.03;0.03;;;;;;;;;;5043131;28;20275;-73
2022/07/09 05:37:11;;;;;;;0.10;0.10;;;;;;;;;;5048179;28;20267;-73
2022/07/09 05:39:37;;;;;;;0.10;0.10;;;;;;;;;;5043029;28;20215;-73
2022/07/09 05:42:04;;;;;;;0.10;0.10;;;;;;;;;;5048059;28;20499;-72
2022/07/09 05:44:31;;;;;;;0.03;0.03;;;;;;;;;;5042938;28;20218;-73
2022/07/09 05:46:57;;;;;;;0.10;0.10;;;;;;;;;;5046986;28;20247;-73
2022/07/09 05:49:23;;;;;;;0.10;0.10;;;;;;;;;;5043721;28;20235;-73
2022/07/09 05:51:50;;;;;;;0.10;0.10;;;;;;;;;;5046130;28;20576;-73
2022/07/09 05:54:17;;;;;;;0.00;0.00;;;;;;;;;;5044732;28;20319;-73
2022/07/09 05:56:44;;;;;;;0.10;0.10;;;;;;;;;;5045104;28;20489;-73
2022/07/09 05:59:10;;;;;;;0.10;0.10;;;;;;;;;;5045219;28;20251;-74
2022/07/09 06:01:39;;;;;;;0.00;0.00;;;;;;;;;;5043822;28;20242;-74
2022/07/09 06:04:07;;;;;;;0.10;0.10;;;;;;;;;;5046375;28;20204;-74
2022/07/09 06:06:33;;;;;;;0.00;0.00;;;;;;;;;;5043690;28;20242;-75
2022/07/09 06:08:59;;;;;;;0.00;0.00;;;;;;;;;;5046783;28;20232;-74
2022/07/09 06:11:27;;;;;;;0.10;0.10;;;;;;;;;;5043097;28;20248;-75
2022/07/09 06:13:54;;;;;;;0.10;0.10;;;;;;;;;;5047622;28;20400;-74
2022/07/09 06:16:20;;;;;;;0.10;0.10;;;;;;;;;;5042075;28;20303;-73
2022/07/09 06:18:46;;;;;;;0.00;0.00;;;;;;;;;;5048377;28;20275;-73
2022/07/09 06:21:12;;;;;;;0.00;0.00;;;;;;;;;;5041310;28;20397;-74
2022/07/09 06:23:39;;;;;;;0.10;0.10;;;;;;;;;;5049451;28;20211;-74
2022/07/09 06:26:05;;;;;;;0.10;0.10;;;;;;;;;;5040194;28;20475;-74
2022/07/09 06:28:36;;;;;;;0.10;0.10;;;;;;;;;;5050206;28;20416;-73
2022/07/09 06:31:02;;;;;;;0.10;0.10;;;;;;;;;;5039876;28;20303;-74
2022/07/09 06:33:28;;;;;;;0.10;0.10;;;;;;;;;;5050563;28;20268;-73
2022/07/09 06:35:54;;;;;;;0.10;0.10;;;;;;;;;;5039725;28;20240;-74
2022/07/09 06:38:21;;;;;;;0.10;0.10;;;;;;;;;;5055499;28;20203;-74
2022/07/09 06:40:47;;;;;;;0.03;0.03;;;;;;;;;;5041648;28;20240;-75
2022/07/09 06:43:14;;;;;;;0.10;0.10;;;;;;;;;;5056041;28;20279;-73
2022/07/09 06:45:41;;;;;;;0.10;0.10;;;;;;;;;;5040745;28;20244;-73
2022/07/09 06:48:08;;;;;;;0.00;0.00;;;;;;;;;;5056673;28;20258;-74
2022/07/09 06:50:34;;;;;;;0.00;0.00;;;;;;;;;;5040139;28;20240;-74
2022/07/09 06:53:00;;;;;;;0.07;0.07;;;;;;;;;;5057814;28;20269;-73
2022/07/09 06:55:28;;;;;;;0.00;0.00;;;;;;;;;;5038982;28;20248;-74
2022/07/09 06:57:54;;;;;;;0.08;0.08;;;;;;;;;;5058122;28;20253;-73
2022/07/09 07:00:20;;;;;;;0.03;0.03;;;;;;;;;;5037982;28;20209;-73
2022/07/09 07:02:48;;;;;;;0.03;0.03;;;;;;;;;;5059368;28;20208;-73
2022/07/09 07:05:14;;;;;;;0.10;0.10;;;;;;;;;;5037167;28;20208;-74
2022/07/09 07:07:41;;;;;;;0.10;0.10;;;;;;;;;;5059916;28;20241;-73
2022/07/09 07:10:08;;;;;;;0.05;0.05;;;;;;;;;;5036079;28;20387;-72
2022/07/09 07:12:34;;;;;;;0.10;0.10;;;;;;;;;;5060571;28;20280;-73
2022/07/09 07:15:01;;;;;;;0.10;0.10;;;;;;;;;;5045707;28;20304;-72
2022/07/09 07:17:27;;;;;;;0.10;0.10;;;;;;;;;;5050848;28;20263;-72
2022/07/09 07:19:55;;;;;;;0.10;0.10;;;;;;;;;;5045684;28;20473;-73
2022/07/09 07:22:21;;;;;;;0.03;0.03;;;;;;;;;;5051010;28;20243;-73
2022/07/09 07:24:48;;;;;;;0.03;0.03;;;;;;;;;;5045656;28;20232;-73
2022/07/09 07:27:14;;;;;;;0.10;0.10;;;;;;;;;;5050788;28;20326;-76
2022/07/09 07:29:41;;;;;;;0.10;0.10;;;;;;;;;;5045751;28;20210;-75
2022/07/09 07:32:08;;;;;;;0.10;0.10;;;;;;;;;;5050899;28;20264;-78
2022/07/09 07:34:34;;;;;;;0.10;0.10;;;;;;;;;;5045621;28;20205;-77
2022/07/09 07:37:02;;;;;;;0.10;0.10;;;;;;;;;;5050035;28;20280;-80
2022/07/09 07:39:28;;;;;;;0.10;0.10;;;;;;;;;;5046136;28;20228;-80
2022/07/09 07:41:56;;;;;;;0.00;0.00;;;;;;;;;;5049286;28;20442;-74
2022/07/09 07:44:22;;;;;;;0.10;0.10;;;;;;;;;;5045975;28;20469;-76
2022/07/09 07:46:49;;;;;;;0.05;0.05;;;;;;;;;;5048161;28;20298;-77
2022/07/09 07:49:15;;;;;;;0.00;0.00;;;;;;;;;;5046486;28;20242;-74
2022/07/09 07:51:42;;;;;;;0.10;0.10;;;;;;;;;;5047015;28;20263;-75
2022/07/09 07:54:10;;;;;;;0.00;0.00;;;;;;;;;;5047699;28;20219;-79
2022/07/09 07:56:39;;;;;;;0.10;0.10;;;;;;;;;;5046833;28;20625;-79
2022/07/09 07:59:05;;;;;;;0.10;0.10;;;;;;;;;;5048111;28;20220;-79
2022/07/09 08:01:32;;;;;;;0.00;0.00;;;;;;;;;;5045822;28;20294;-75
2022/07/09 08:03:58;;;;;;;0.10;0.10;;;;;;;;;;5048762;28;20211;-80
2022/07/09 08:06:24;;;;;;;0.10;0.10;;;;;;;;;;5044669;28;20239;-79
2022/07/09 08:08:51;;;;;;;0.10;0.10;;;;;;;;;;5049958;28;20333;-80
2022/07/09 08:11:19;;;;;;;0.08;0.08;;;;;;;;;;5043892;28;20532;-79
2022/07/09 08:13:45;;;;;;;0.00;0.00;;;;;;;;;;5050583;28;20391;-78
2022/07/09 08:16:12;;;;;;;0.10;0.10;;;;;;;;;;5043205;28;20255;-78
2022/07/09 08:18:38;;;;;;;0.00;0.00;;;;;;;;;;5051280;28;20311;-78
2022/07/09 08:21:04;;;;;;;0.05;0.05;;;;;;;;;;5042293;28;20243;-78
2022/07/09 08:23:31;;;;;;;0.10;0.10;;;;;;;;;;5052329;28;20205;-78
2022/07/09 08:25:57;;;;;;;0.10;0.10;;;;;;;;;;5040960;28;20240;-79
2022/07/09 08:28:25;;;;;;;0.00;0.00;;;;;;;;;;5052755;28;20320;-77
2022/07/09 08:30:51;;;;;;;0.10;0.10;;;;;;;;;;5040097;28;20311;-75
2022/07/09 08:33:17;;;;;;;0.10;0.10;;;;;;;;;;5053547;28;20203;-78
2022/07/09 08:35:44;;;;;;;0.10;0.10;;;;;;;;;;5039189;28;20266;-79
2022/07/09 08:38:10;;;;;;;0.00;0.00;;;;;;;;;;5054835;28;20441;-79
2022/07/09 08:40:37;;;;;;;0.10;0.10;;;;;;;;;;5038217;28;20392;-78
2022/07/09 08:43:04;;;;;;;0.10;0.10;;;;;;;;;;5055662;28;20206;-78
2022/07/09 08:45:32;;;;;;;0.05;0.05;;;;;;;;;;5037253;28;20260;-78
2022/07/09 08:47:59;;;;;;;0.10;0.10;;;;;;;;;;5055847;28;20244;-78
2022/07/09 08:50:27;;;;;;;0.00;0.00;;;;;;;;;;5036714;28;20260;-79
2022/07/09 08:52:55;;;;;;;0.03;0.03;;;;;;;;;;5056801;28;20239;-78
2022/07/09 08:55:22;;;;;;;0.10;0.10;;;;;;;;;;5035945;28;20264;-78
2022/07/09 08:57:48;;;;;;;0.10;0.10;;;;;;;;;;5056769;28;20209;-78
2022/07/09 09:00:15;;;;;;;0.08;0.08;;;;;;;;;;5034089;28;20210;-79
2022/07/09 09:02:42;;;;;;;0.03;0.03;;;;;;;;;;5057947;28;20203;-79
2022/07/09 09:05:11;;;;;;;0.00;0.00;;;;;;;;;;5033655;28;20272;-78
2022/07/09 09:07:38;;;;;;;0.00;0.00;;;;;;;;;;5058205;28;20439;-77
2022/07/09 09:10:05;;;;;;;0.10;0.10;;;;;;;;;;5043782;28;20426;-79
2022/07/09 09:12:31;;;;;;;0.10;0.10;;;;;;;;;;5031996;28;20216;-79
2022/07/09 09:14:57;;;;;;;0.10;0.10;;;;;;;;;;5043560;28;20281;-77
2022/07/09 09:17:24;;;;;;;0.10;0.10;;;;;;;;;;5048602;28;20268;-79
2022/07/09 09:19:52;;;;;;;0.03;0.03;;;;;;;;;;5043208;28;20278;-78
2022/07/09 09:22:18;;;;;;;0.10;0.10;;;;;;;;;;5048600;28;20246;-78
2022/07/09 09:24:49;;;;;;;0.05;0.05;;;;;;;;;;5043277;28;20212;-78
2022/07/09 09:27:15;;;;;;;0.00;0.00;;;;;;;;;;5048436;28;20304;-78
2022/07/09 09:29:49;;;;;;;0.10;0.10;;;;;;;;;;5043071;28;20245;-77
2022/07/09 09:32:19;;;;;;;0.00;0.00;;;;;;;;;;5048439;28;20356;-78
2022/07/09 09:34:49;;;;;;;0.10;0.10;;;;;;;;;;5043384;28;20475;-79
2022/07/09 09:37:25;;;;;;;0.00;0.00;;;;;;;;;;5048252;28;20310;-80
2022/07/09 09:39:51;;;;;;;0.00;0.00;;;;;;;;;;5042863;28;20212;-76
2022/07/09 09:42:18;;;;;;;0.10;0.10;;;;;;;;;;5048310;28;20256;-79
2022/07/09 09:44:45;;;;;;;0.05;0.05;;;;;;;;;;5043183;28;20276;-79
2022/07/09 09:47:12;;;;;;;0.00;0.00;;;;;;;;;;5048112;28;20303;-78
2022/07/09 09:49:39;;;;;;;0.00;0.00;;;;;;;;;;5043112;28;20238;-78
2022/07/09 09:52:06;;;;;;;0.00;0.00;;;;;;;;;;5047976;28;20616;-78
2022/07/09 09:54:34;;;;;;;0.10;0.10;;;;;;;;;;5042674;28;20304;-78
2022/07/09 09:57:02;;;;;;;0.10;0.10;;;;;;;;;;5047442;28;20331;-79
2022/07/09 09:59:28;;;;;;;0.00;0.00;;;;;;;;;;5043439;28;20212;-78
2022/07/09 10:01:55;;;;;;;0.10;0.10;;;;;;;;;;5046327;28;20244;-78
2022/07/09 10:04:21;;;;;;;0.10;0.10;;;;;;;;;;5044534;28;20276;-78
2022/07/09 10:06:47;;;;;;;0.10;0.10;;;;;;;;;;5045568;28;20445;-78
2022/07/09 10:09:15;;;;;;;0.10;0.10;;;;;;;;;;5045015;28;20416;-78
2022/07/09 10:11:44;;;;;;;0.00;0.00;;;;;;;;;;5044238;28;20271;-78
2022/07/09 10:14:15;;;;;;;0.10;0.10;;;;;;;;;;5045710;28;20255;-79
2022/07/09 10:16:42;;;;;;;0.00;0.00;;;;;;;;;;5044698;28;20243;-78
2022/07/09 10:19:08;;;;;;;0.00;0.00;;;;;;;;;;5045399;28;20215;-79
2022/07/09 10:21:36;;;;;;;0.00;0.00;;;;;;;;;;5043805;28;20298;-78
2022/07/09 10:24:02;;;;;;;0.00;0.00;;;;;;;;;;5046518;28;20245;-78
2022/07/09 10:26:37;;;;;;;0.10;0.10;;;;;;;;;;5042698;28;20248;-78
2022/07/09 10:29:17;;;;;;;0.10;0.10;;;;;;;;;;5045774;28;20278;-77
2022/07/09 10:31:44;;;;;;;0.03;0.03;;;;;;;;;;5044951;28;20240;-78
2022/07/09 10:34:15;;;;;;;0.00;0.00;;;;;;;;;;5045440;28;20500;-78
2022/07/09 10:36:41;;;;;;;0.00;0.00;;;;;;;;;;5043984;28;20266;-78
2022/07/09 10:39:12;;;;;;;0.00;0.00;;;;;;;;;;5045988;28;20209;-79
2022/07/09 10:41:38;;;;;;;0.00;0.00;;;;;;;;;;5044260;28;20252;-78
2022/07/09 10:44:06;;;;;;;0.10;0.10;;;;;;;;;;5045578;28;20244;-78
2022/07/09 10:46:33;;;;;;;0.00;0.00;;;;;;;;;;5043083;28;20306;-78
2022/07/09 10:48:59;;;;;;;0.10;0.10;;;;;;;;;;5046496;28;20235;-79
2022/07/09 10:51:27;;;;;;;0.03;0.03;;;;;;;;;;5042547;28;20308;-79
2022/07/09 10:53:54;;;;;;;0.00;0.00;;;;;;;;;;5047182;28;20284;-78
2022/07/09 10:56:20;;;;;;;0.00;0.00;;;;;;;;;;5041707;28;20259;-78
2022/07/09 10:58:47;;;;;;;0.00;0.00;;;;;;;;;;5047720;28;20216;-78
2022/07/09 11:01:19;;;;;;;0.10;0.10;;;;;;;;;;5040769;28;20256;-77
2022/07/09 11:03:49;;;;;;;0.10;0.10;;;;;;;;;;5048176;28;20211;-78
2022/07/09 11:06:15;;;;;;;0.10;0.10;;;;;;;;;;5040846;28;20292;-79
2022/07/09 11:08:42;;;;;;;0.00;0.00;;;;;;;;;;5048546;28;20232;-79
2022/07/09 11:11:08;;;;;;;0.10;0.10;;;;;;;;;;5039943;28;20241;-78
2022/07/09 11:13:35;;;;;;;0.00;0.00;;;;;;;;;;5049748;28;20215;-78
2022/07/09 11:16:01;;;;;;;0.00;0.00;;;;;;;;;;5039355;28;20352;-78
2022/07/09 11:18:30;;;;;;;0.00;0.00;;;;;;;;;;5049809;28;20231;-79
2022/07/09 11:20:56;;;;;;;0.00;0.00;;;;;;;;;;5038659;28;20431;-78
2022/07/09 11:23:24;;;;;;;0.00;0.00;;;;;;;;;;5052471;28;20213;-79
2022/07/09 11:25:51;;;;;;;0.10;0.10;;;;;;;;;;5041483;28;20607;-78
2022/07/09 11:28:19;;;;;;;0.00;0.00;;;;;;;;;;5055003;28;20479;-78
2022/07/09 11:30:45;;;;;;;0.10;0.10;;;;;;;;;;5040591;28;20248;-79
2022/07/09 11:33:13;;;;;;;0.00;0.00;;;;;;;;;;5055335;28;20239;-78
2022/07/09 11:35:44;;;;;;;0.00;0.00;;;;;;;;;;5039517;28;20264;-79
2022/07/09 11:38:11;;;;;;;0.10;0.10;;;;;;;;;;5055774;28;20494;-78
2022/07/09 11:40:38;;;;;;;0.03;0.03;;;;;;;;;;5039223;28;20245;-79
2022/07/09 11:43:13;;;;;;;0.00;0.00;;;;;;;;;;5056453;28;20392;-79
2022/07/09 11:45:39;;;;;;;0.10;0.10;;;;;;;;;;5039686;28;20323;-78
2022/07/09 11:48:07;;;;;;;0.10;0.10;;;;;;;;;;5056049;28;20528;-79
2022/07/09 11:50:34;;;;;;;0.10;0.10;;;;;;;;;;5038768;28;20243;-78
2022/07/09 11:53:01;;;;;;;0.10;0.10;;;;;;;;;;5056487;28;20269;-78
2022/07/09 11:55:32;;;;;;;0.10;0.10;;;;;;;;;;5037519;28;20317;-78
2022/07/09 11:57:59;;;;;;;0.00;0.00;;;;;;;;;;5056833;28;20312;-79
2022/07/09 12:00:27;;;;;;;0.00;0.00;;;;;;;;;;5036964;28;20249;-78
2022/07/09 12:02:53;;;;;;;0.00;0.00;;;;;;;;;;5058066;28;20216;-78
2022/07/09 12:05:27;;;;;;;0.00;0.00;;;;;;;;;;5036646;28;20287;-78
2022/07/09 12:07:53;;;;;;;0.00;0.00;;;;;;;;;;5057422;28;20235;-77
2022/07/09 12:10:27;;;;;;;0.00;0.00;;;;;;;;;;5036228;28;20292;-78
2022/07/09 12:12:53;;;;;;;0.00;0.00;;;;;;;;;;5057515;28;20194;-78
2022/07/09 12:15:20;;;;;;;0.00;0.00;;;;;;;;;;5036182;28;20206;-78
2022/07/09 12:17:51;;;;;;;0.10;0.10;;;;;;;;;;5058326;28;20327;-79
2022/07/09 12:20:17;;;;;;;0.00;0.00;;;;;;;;;;5035931;28;20206;-78
2022/07/09 12:22:44;;;;;;;0.08;0.08;;;;;;;;;;5058351;28;20204;-77
2022/07/09 12:25:10;;;;;;;0.10;0.10;;;;;;;;;;5035135;28;20258;-78
2022/07/09 12:27:38;;;;;;;0.10;0.10;;;;;;;;;;5059402;28;20263;-79
2022/07/09 12:30:05;;;;;;;0.00;0.00;;;;;;;;;;5042438;28;20247;-75
2022/07/09 12:32:31;;;;;;;0.00;0.00;;;;;;;;;;5059691;28;20247;-77
2022/07/09 12:34:57;;;;;;;0.00;0.00;;;;;;;;;;5044437;28;20205;-78
2022/07/09 12:37:24;;;;;;;0.10;0.10;;;;;;;;;;5049771;28;20249;-78
2022/07/09 12:39:50;;;;;;;0.00;0.00;;;;;;;;;;5044348;28;20201;-78
2022/07/09 12:42:17;;;;;;;0.03;0.03;;;;;;;;;;5049451;28;20279;-77
2022/07/09 12:44:45;;;;;;;0.00;0.00;;;;;;;;;;5044314;28;20208;-78
2022/07/09 12:47:12;;;;;;;0.10;0.10;;;;;;;;;;5049557;28;20314;-78
2022/07/09 12:49:38;;;;;;;0.05;0.05;;;;;;;;;;5044091;28;20227;-77
2022/07/09 12:52:05;;;;;;;0.00;0.00;;;;;;;;;;5049070;28;20242;-79
2022/07/09 12:54:33;;;;;;;0.00;0.00;;;;;;;;;;5043777;28;20533;-77
2022/07/09 12:57:00;;;;;;;0.00;0.00;;;;;;;;;;5048354;28;20252;-78
2022/07/09 12:59:26;;;;;;;0.03;0.03;;;;;;;;;;5044263;28;20232;-78
2022/07/09 13:01:54;;;;;;;0.10;0.10;;;;;;;;;;5047275;28;20283;-76
2022/07/09 13:04:20;;;;;;;0.00;0.00;;;;;;;;;;5045108;28;20213;-78
2022/07/09 13:06:46;;;;;;;0.00;0.00;;;;;;;;;;5046798;28;20248;-77
2022/07/09 13:09:13;;;;;;;0.00;0.00;;;;;;;;;;5045899;28;20361;-78
2022/07/09 13:11:39;;;;;;;0.00;0.00;;;;;;;;;;5045509;28;20258;-78
2022/07/09 13:14:06;;;;;;;0.00;0.00;;;;;;;;;;5046755;28;20254;-78
2022/07/09 13:16:32;;;;;;;0.00;0.00;;;;;;;;;;5044641;28;20302;-78
2022/07/09 13:19:00;;;;;;;0.00;0.00;;;;;;;;;;5047707;28;20202;-78
2022/07/09 13:21:26;;;;;;;0.10;0.10;;;;;;;;;;5043805;28;20481;-78
2022/07/09 13:23:53;;;;;;;0.00;0.00;;;;;;;;;;5047859;28;20524;-79
2022/07/09 13:26:20;;;;;;;0.10;0.10;;;;;;;;;;5042276;28;20307;-78
2022/07/09 13:28:46;;;;;;;0.00;0.00;;;;;;;;;;5048563;28;20554;-77
2022/07/09 13:31:13;;;;;;;0.00;0.00;;;;;;;;;;5041329;28;20507;-79
2022/07/09 13:33:39;;;;;;;0.08;0.08;;;;;;;;;;5049504;28;20202;-78
2022/07/09 13:36:08;;;;;;;0.08;0.08;;;;;;;;;;5040835;28;20639;-77
2022/07/09 13:38:35;;;;;;;0.00;0.00;;;;;;;;;;5050236;28;20214;-78
2022/07/09 13:41:01;;;;;;;0.08;0.08;;;;;;;;;;5040066;28;20475;-78
2022/07/09 13:43:28;;;;;;;0.05;0.05;;;;;;;;;;5051208;28;20486;-78
2022/07/09 13:45:56;;;;;;;0.05;0.05;;;;;;;;;;5039009;28;20262;-79
2022/07/09 13:48:22;;;;;;;0.10;0.10;;;;;;;;;;5053547;28;20227;-79
2022/07/09 13:50:49;;;;;;;0.00;0.00;;;;;;;;;;5038412;28;20244;-77
2022/07/09 13:53:16;;;;;;;0.03;0.03;;;;;;;;;;5052404;28;20274;-77
2022/07/09 13:55:43;;;;;;;0.08;0.08;;;;;;;;;;5037716;28;20241;-78
2022/07/09 13:58:10;;;;;;;0.00;0.00;;;;;;;;;;5052866;28;20293;-77
2022/07/09 14:00:36;;;;;;;0.03;0.03;;;;;;;;;;5036897;28;20316;-78
2022/07/09 14:03:03;;;;;;;0.10;0.10;;;;;;;;;;5054035;28;20287;-78
2022/07/09 14:05:29;;;;;;;0.10;0.10;;;;;;;;;;5035939;28;20269;-77
2022/07/09 14:07:56;;;;;;;0.00;0.00;;;;;;;;;;5054808;28;20391;-77
2022/07/09 14:10:24;;;;;;;0.00;0.00;;;;;;;;;;5034691;28;20296;-79
2022/07/09 14:12:50;;;;;;;0.00;0.00;;;;;;;;;;5055531;28;20259;-78
2022/07/09 14:15:17;;;;;;;0.00;0.00;;;;;;;;;;5033764;28;20464;-78
2022/07/09 14:17:44;;;;;;;0.00;0.00;;;;;;;;;;5056462;28;20268;-78
2022/07/09 14:20:11;;;;;;;0.10;0.10;;;;;;;;;;5032902;28;20215;-78
2022/07/09 14:22:37;;;;;;;0.00;0.00;;;;;;;;;;5057318;28;20406;-78
2022/07/09 14:25:04;;;;;;;0.00;0.00;;;;;;;;;;5042557;28;20219;-77
2022/07/09 14:27:32;;;;;;;0.03;0.03;;;;;;;;;;5030925;28;20265;-78
2022/07/09 14:29:58;;;;;;;0.00;0.00;;;;;;;;;;5042532;28;20325;-78
2022/07/09 14:32:25;;;;;;;0.03;0.03;;;;;;;;;;5047385;28;20243;-77
2022/07/09 14:34:51;;;;;;;0.10;0.10;;;;;;;;;;5042058;28;20229;-75
2022/07/09 14:37:17;;;;;;;0.00;0.00;;;;;;;;;;5046915;28;20303;-76
2022/07/09 14:39:44;;;;;;;0.10;0.10;;;;;;;;;;5041981;28;20202;-77
2022/07/09 14:42:10;;;;;;;0.10;0.10;;;;;;;;;;5047171;28;20321;-78